Time;durP1;ratioP1;P1;durP2;ratioP2;P2;SDS_P1;SDS_P2;PMS_P1;PMS_P2;Temp;Humidity;BMP_temperature;BMP_pressure;BME280_temperature;BME280_humidity;BME280_pressure;Samples;Min_cycle;Max_cycle;Signal;HPM_P1;HPM_P2
2023/01/02 00:01:48;;;;;;;185.13;128.40;;;8.00;99.90;;;;;;5094469;28;20032;-63
2023/01/02 00:04:14;;;;;;;166.60;115.38;;;8.00;99.90;;;;;;5094449;28;20021;-65
2023/01/02 00:06:39;;;;;;;179.23;120.95;;;8.00;99.90;;;;;;5093927;28;20024;-62
2023/01/02 00:09:06;;;;;;;146.73;105.13;;;8.10;99.90;;;;;;5094325;28;20032;-65
2023/01/02 00:11:32;;;;;;;132.93;93.82;;;8.10;99.90;;;;;;5092822;28;20390;-64
2023/01/02 00:13:58;;;;;;;112.93;81.30;;;8.10;99.90;;;;;;5093858;28;20026;-63
2023/01/02 00:16:24;;;;;;;97.95;71.43;;;8.20;99.90;;;;;;5094013;28;20504;-65
2023/01/02 00:18:50;;;;;;;98.70;69.55;;;8.10;99.90;;;;;;5094050;28;20020;-61
2023/01/02 00:21:16;;;;;;;94.72;66.05;;;8.20;99.90;;;;;;5094052;28;20028;-65
2023/01/02 00:23:42;;;;;;;100.45;68.75;;;8.10;99.90;;;;;;5094109;28;20030;-67
2023/01/02 00:26:08;;;;;;;126.85;87.13;;;8.10;99.90;;;;;;5094048;28;20019;-65
2023/01/02 00:28:36;;;;;;;117.88;80.28;;;8.00;99.90;;;;;;5093822;28;20024;-66
2023/01/02 00:31:09;;;;;;;125.03;89.18;;;7.80;99.90;;;;;;5093785;28;20016;-60
2023/01/02 00:33:36;;;;;;;129.68;88.05;;;7.80;99.90;;;;;;5093861;28;20035;-67
2023/01/02 00:36:10;;;;;;;137.27;97.22;;;7.70;99.90;;;;;;5093742;28;20028;-65
2023/01/02 00:38:37;;;;;;;124.30;84.10;;;7.60;99.90;;;;;;5093712;28;20063;-65
2023/01/02 00:41:03;;;;;;;160.38;109.57;;;7.60;99.90;;;;;;5093782;28;20023;-65
2023/01/02 00:43:29;;;;;;;157.95;103.05;;;7.50;99.90;;;;;;5093492;28;20028;-62
2023/01/02 00:45:55;;;;;;;134.55;92.32;;;7.50;99.90;;;;;;5093759;28;20107;-66
2023/01/02 00:48:21;;;;;;;143.13;97.93;;;7.50;99.90;;;;;;5093644;28;20052;-63
2023/01/02 00:50:47;;;;;;;143.07;97.40;;;7.60;99.90;;;;;;5093676;28;20024;-67
2023/01/02 00:53:13;;;;;;;125.53;85.95;;;7.70;99.90;;;;;;5093602;28;20032;-65
2023/01/02 00:55:38;;;;;;;103.13;73.57;;;7.70;99.90;;;;;;5093682;28;20520;-65
2023/01/02 00:58:04;;;;;;;125.28;84.20;;;7.70;99.90;;;;;;5093282;28;20181;-63
2023/01/02 01:00:30;;;;;;;107.00;74.85;;;7.70;99.90;;;;;;5093517;28;20027;-65
2023/01/02 01:02:57;;;;;;;104.50;71.25;;;7.70;99.90;;;;;;5093755;28;20066;-63
2023/01/02 01:05:24;;;;;;;97.53;67.57;;;7.60;99.90;;;;;;5093685;28;20020;-64
2023/01/02 01:07:50;;;;;;;95.78;64.57;;;7.60;99.90;;;;;;5093421;28;20547;-65
2023/01/02 01:10:16;;;;;;;114.97;76.80;;;7.70;99.90;;;;;;5093420;28;20063;-66
2023/01/02 01:12:41;;;;;;;105.60;72.35;;;7.60;99.90;;;;;;5093106;28;20390;-65
2023/01/02 01:15:08;;;;;;;105.20;71.03;;;7.60;99.90;;;;;;5093464;28;20085;-65
2023/01/02 01:17:33;;;;;;;107.03;69.63;;;7.60;99.90;;;;;;5093522;28;20039;-66
2023/01/02 01:19:59;;;;;;;104.22;69.03;;;7.60;99.90;;;;;;5096703;28;20020;-65
2023/01/02 01:22:25;;;;;;;105.45;69.50;;;7.60;99.90;;;;;;5097290;28;20016;-61
2023/01/02 01:24:50;;;;;;;106.60;72.95;;;7.60;99.90;;;;;;5097259;28;20024;-66
2023/01/02 01:27:16;;;;;;;148.10;97.80;;;7.60;99.90;;;;;;5097159;28;20090;-64
2023/01/02 01:29:42;;;;;;;116.65;79.68;;;7.60;99.90;;;;;;5079252;28;20031;-65
2023/01/02 01:32:07;;;;;;;115.00;74.30;;;7.40;99.90;;;;;;5097072;28;20398;-63
2023/01/02 01:34:33;;;;;;;125.95;89.28;;;7.50;99.90;;;;;;5079028;28;20020;-66
2023/01/02 01:36:59;;;;;;;151.10;105.05;;;7.50;99.90;;;;;;5097128;28;20069;-65
2023/01/02 01:39:24;;;;;;;128.88;91.30;;;7.40;99.90;;;;;;5096981;28;20024;-66
2023/01/02 01:41:50;;;;;;;109.22;77.68;;;7.20;99.90;;;;;;5096842;28;20047;-62
2023/01/02 01:44:46;;;;;;;126.22;87.03;;;7.20;99.90;;;;;;5097101;28;20474;-67
2023/01/02 01:47:46;;;;;;;110.00;74.60;;;7.30;99.90;;;;;;5096980;28;20097;-63
2023/01/02 01:50:20;;;;;;;124.88;88.35;;;7.30;99.90;;;;;;5096759;28;20116;-66
2023/01/02 01:53:03;;;;;;;107.53;75.97;;;7.30;99.90;;;;;;5096687;28;20036;-63
2023/01/02 01:55:45;;;;;;;101.32;68.97;;;7.20;99.90;;;;;;5096632;28;20066;-66
2023/01/02 01:58:17;;;;;;;78.45;53.00;;;7.10;99.90;;;;;;5096332;28;20156;-65
2023/01/02 02:00:43;;;;;;;70.22;48.15;;;7.10;99.90;;;;;;5096629;28;20095;-65
2023/01/02 02:03:18;;;;;;;77.20;52.97;;;7.20;99.90;;;;;;5096587;28;20020;-62
2023/01/02 02:05:45;;;;;;;66.80;45.80;;;7.20;99.90;;;;;;5095246;28;20115;-59
2023/01/02 02:08:29;;;;;;;58.85;42.45;;;7.20;99.90;;;;;;5096449;28;20020;-64
2023/01/02 02:10:57;;;;;;;;;;;7.30;99.90;;;;;;5096728;28;20459;-60
2023/01/02 02:13:22;;;;;;;59.60;41.60;;;7.30;99.90;;;;;;5096634;28;19965;-65
2023/01/02 02:16:09;;;;;;;55.15;37.72;;;7.30;99.90;;;;;;5078200;28;20024;-62
2023/01/02 02:18:47;;;;;;;49.90;36.65;;;7.30;99.90;;;;;;5078223;28;20047;-67
2023/01/02 02:21:49;;;;;;;64.95;45.35;;;7.30;99.90;;;;;;5096208;28;20038;-63
2023/01/02 02:24:24;;;;;;;53.10;37.10;;;7.20;99.90;;;;;;5077704;28;20036;-62
2023/01/02 02:27:06;;;;;;;51.20;35.67;;;7.10;99.90;;;;;;5096000;28;20016;-66
2023/01/02 02:29:49;;;;;;;44.85;32.28;;;7.00;99.90;;;;;;5096151;28;20027;-63
2023/01/02 02:32:42;;;;;;;43.20;31.30;;;7.10;99.90;;;;;;5095893;28;20431;-63
2023/01/02 02:35:10;;;;;;;43.05;30.13;;;7.10;99.90;;;;;;5095805;28;20030;-66
2023/01/02 02:37:42;;;;;;;63.03;43.33;;;7.10;99.90;;;;;;5095832;28;20028;-65
2023/01/02 02:40:15;;;;;;;56.78;39.35;;;7.00;99.90;;;;;;5095992;28;20103;-63
2023/01/02 02:42:56;;;;;;;44.33;32.47;;;6.80;99.90;;;;;;5096092;28;20055;-65
2023/01/02 02:45:32;;;;;;;45.50;30.88;;;6.70;99.90;;;;;;5095992;28;20016;-66
2023/01/02 02:48:21;;;;;;;38.25;27.70;;;6.90;99.90;;;;;;5095808;28;20493;-64
2023/01/02 02:51:31;;;;;;;35.38;26.85;;;7.00;99.90;;;;;;5095645;28;20133;-60
2023/01/02 02:54:07;;;;;;;38.15;26.00;;;7.00;99.90;;;;;;5063931;28;20044;-62
2023/01/02 02:56:33;;;;;;;41.83;27.25;;;7.10;99.90;;;;;;5095504;28;20051;-69
2023/01/02 02:59:00;;;;;;;42.97;30.35;;;7.20;99.90;;;;;;5095326;28;20131;-65
2023/01/02 03:01:28;;;;;;;44.80;32.25;;;7.10;99.90;;;;;;5095346;28;20020;-65
2023/01/02 03:03:53;;;;;;;44.15;31.02;;;7.00;99.90;;;;;;5094212;28;20141;-66
2023/01/02 03:06:29;;;;;;;59.60;39.30;;;7.00;99.90;;;;;;5095305;28;20020;-64
2023/01/02 03:09:12;;;;;;;60.20;42.55;;;6.90;99.90;;;;;;5095254;28;20111;-63
2023/01/02 03:11:54;;;;;;;54.40;37.58;;;6.80;99.90;;;;;;5077093;28;20488;-62
2023/01/02 03:14:28;;;;;;;46.00;33.00;;;6.80;99.90;;;;;;5077189;28;20047;-66
2023/01/02 03:17:04;;;;;;;54.90;36.55;;;6.80;99.90;;;;;;5095156;28;20016;-62
2023/01/02 03:19:30;;;;;;;58.25;42.75;;;6.90;99.90;;;;;;5093882;28;20028;-66
2023/01/02 03:22:18;;;;;;;50.92;35.38;;;6.90;99.90;;;;;;5094880;28;20083;-66
2023/01/02 03:24:46;;;;;;;42.22;30.17;;;6.90;99.90;;;;;;5095069;28;20023;-63
2023/01/02 03:27:17;;;;;;;40.70;29.95;;;6.90;99.90;;;;;;5076882;28;20461;-63
2023/01/02 03:29:47;;;;;;;38.60;29.30;;;6.90;99.90;;;;;;5094895;28;20020;-64
2023/01/02 03:32:21;;;;;;;40.72;29.83;;;6.90;99.90;;;;;;5094809;28;20024;-64
2023/01/02 03:34:47;;;;;;;;;;;7.00;99.90;;;;;;5095306;28;20062;-63
2023/01/02 03:37:27;;;;;;;32.75;23.98;;;7.00;99.90;;;;;;5094552;28;19904;-64
2023/01/02 03:39:57;;;;;;;34.42;24.80;;;6.90;99.90;;;;;;5094744;28;20366;-62
2023/01/02 03:42:32;;;;;;;35.30;24.95;;;6.90;99.90;;;;;;5094251;28;20103;-68
2023/01/02 03:45:20;;;;;;;33.63;24.02;;;7.00;99.90;;;;;;5094736;28;20145;-62
2023/01/02 03:48:06;;;;;;;39.47;26.90;;;7.00;99.90;;;;;;5094477;28;20024;-63
2023/01/02 03:50:35;;;;;;;40.05;30.48;;;6.90;99.90;;;;;;5094261;28;20028;-66
2023/01/02 03:53:02;;;;;;;34.47;25.70;;;6.80;99.90;;;;;;5094312;28;20114;-64
2023/01/02 03:55:33;;;;;;;36.58;26.30;;;6.80;99.90;;;;;;5094582;28;20042;-60
2023/01/02 03:57:59;;;;;;;40.83;28.77;;;6.80;99.90;;;;;;5094370;28;20127;-68
2023/01/02 04:00:33;;;;;;;35.40;25.90;;;6.80;99.90;;;;;;5094358;28;20056;-65
2023/01/02 04:03:07;;;;;;;52.30;36.67;;;6.80;99.90;;;;;;5094545;28;20016;-63
2023/01/02 04:05:36;;;;;;;46.05;34.30;;;6.90;99.90;;;;;;5093921;28;20028;-64
2023/01/02 04:08:08;;;;;;;41.72;31.38;;;6.80;99.90;;;;;;5094179;28;20020;-63
2023/01/02 04:10:37;;;;;;;39.70;28.98;;;6.80;99.90;;;;;;5094222;28;20153;-66
2023/01/02 04:13:11;;;;;;;40.92;30.80;;;6.70;99.90;;;;;;5093760;28;20047;-65
2023/01/02 04:15:38;;;;;;;41.40;30.88;;;6.70;99.90;;;;;;5094058;28;20066;-66
2023/01/02 04:18:08;;;;;;;38.53;28.10;;;6.70;99.90;;;;;;5094297;28;20020;-65
2023/01/02 04:20:40;;;;;;;42.13;29.90;;;6.60;99.90;;;;;;5093970;28;20028;-62
2023/01/02 04:23:11;;;;;;;42.75;30.08;;;6.60;99.90;;;;;;5094079;28;20517;-68
2023/01/02 04:25:45;;;;;;;54.53;37.17;;;6.60;99.90;;;;;;5093845;28;20377;-63
2023/01/02 04:28:31;;;;;;;47.25;34.35;;;6.70;99.90;;;;;;5094012;28;20519;-66
2023/01/02 04:31:03;;;;;;;38.05;28.48;;;6.60;99.90;;;;;;5093876;28;20052;-63
2023/01/02 04:33:30;;;;;;;51.50;33.88;;;6.60;99.90;;;;;;5093542;28;20539;-65
2023/01/02 04:35:56;;;;;;;41.35;29.20;;;6.60;99.90;;;;;;5093848;28;20036;-65
2023/01/02 04:38:22;;;;;;;36.85;27.50;;;6.60;99.90;;;;;;5093680;28;20023;-63
2023/01/02 04:40:48;;;;;;;38.40;28.27;;;6.70;99.90;;;;;;5093870;28;20020;-65
2023/01/02 04:43:20;;;;;;;44.15;32.08;;;6.70;99.90;;;;;;5093819;28;20083;-66
2023/01/02 04:45:47;;;;;;;41.53;30.17;;;6.60;99.90;;;;;;5093580;28;20031;-62
2023/01/02 04:48:13;;;;;;;40.22;29.85;;;6.60;99.90;;;;;;5093569;28;20020;-65
2023/01/02 04:50:39;;;;;;;37.42;27.67;;;6.60;99.90;;;;;;5093885;28;20065;-63
2023/01/02 04:53:05;;;;;;;37.67;27.30;;;6.50;99.90;;;;;;5093704;28;20419;-63
2023/01/02 04:55:30;;;;;;;38.15;26.45;;;6.50;99.90;;;;;;5097907;28;20032;-65
2023/01/02 04:57:57;;;;;;;44.67;30.75;;;6.40;99.90;;;;;;5097713;28;20422;-65
2023/01/02 05:00:22;;;;;;;35.80;26.02;;;6.50;99.90;;;;;;5097717;28;20382;-61
2023/01/02 05:02:48;;;;;;;43.25;30.25;;;6.50;99.90;;;;;;5097563;28;20047;-63
2023/01/02 05:05:14;;;;;;;40.00;29.50;;;6.50;99.90;;;;;;5097638;28;20024;-66
2023/01/02 05:07:39;;;;;;;41.90;29.75;;;6.50;99.90;;;;;;5097497;28;20066;-61
2023/01/02 05:10:06;;;;;;;38.20;26.50;;;6.60;99.90;;;;;;5079540;28;20019;-66
2023/01/02 05:12:39;;;;;;;35.88;25.98;;;6.60;99.90;;;;;;5097462;28;20028;-67
2023/01/02 05:15:07;;;;;;;33.10;24.25;;;6.60;99.90;;;;;;5097355;28;20031;-63
2023/01/02 05:17:37;;;;;;;33.58;25.00;;;6.60;99.90;;;;;;5079623;28;20028;-64
2023/01/02 05:20:06;;;;;;;30.60;22.95;;;6.60;99.90;;;;;;5097554;28;20054;-62
2023/01/02 05:25:16;;;;;;;29.85;22.20;;;6.50;99.90;;;;;;5097446;28;20097;-68
2023/01/02 05:27:42;;;;;;;27.70;20.55;;;6.40;99.90;;;;;;5097348;28;20432;-66
2023/01/02 05:30:08;;;;;;;24.50;19.52;;;6.40;99.90;;;;;;5097214;28;20024;-64
2023/01/02 05:32:34;;;;;;;27.25;20.88;;;6.50;99.90;;;;;;5096917;28;20074;-61
2023/01/02 05:35:00;;;;;;;30.58;22.05;;;6.40;99.90;;;;;;5097051;28;20074;-64
2023/01/02 05:37:28;;;;;;;26.58;20.13;;;6.50;99.90;;;;;;5079002;28;20478;-65
2023/01/02 05:39:53;;;;;;;22.55;18.13;;;6.50;99.90;;;;;;5097132;28;20027;-59
2023/01/02 05:42:19;;;;;;;21.50;17.45;;;6.50;99.90;;;;;;5097084;28;20398;-67
2023/01/02 05:44:45;;;;;;;26.58;20.00;;;6.50;99.90;;;;;;5097141;28;20074;-62
2023/01/02 05:47:11;;;;;;;25.73;18.88;;;6.50;99.90;;;;;;5097135;28;20020;-66
2023/01/02 05:49:37;;;;;;;27.42;20.85;;;6.50;99.90;;;;;;5096817;28;20023;-60
2023/01/02 05:52:02;;;;;;;43.47;31.17;;;6.50;99.90;;;;;;5096584;28;20025;-63
2023/01/02 05:54:28;;;;;;;36.65;26.50;;;6.40;99.90;;;;;;5097088;28;20028;-66
2023/01/02 05:56:55;;;;;;;35.88;26.25;;;6.30;99.90;;;;;;5096712;28;20024;-66
2023/01/02 05:59:21;;;;;;;39.72;27.10;;;6.30;99.90;;;;;;5096465;28;20127;-62
2023/01/02 06:01:46;;;;;;;42.10;29.25;;;6.40;99.90;;;;;;5096321;28;20113;-64
2023/01/02 06:04:12;;;;;;;39.95;28.65;;;6.40;99.90;;;;;;5096151;28;20023;-64
2023/01/02 06:06:39;;;;;;;36.40;27.58;;;6.40;99.90;;;;;;5096408;28;20093;-67
2023/01/02 06:09:06;;;;;;;45.13;32.95;;;6.40;99.90;;;;;;5096667;28;20489;-67
2023/01/02 06:11:32;;;;;;;64.45;47.42;;;6.40;99.90;;;;;;5096545;28;20020;-66
2023/01/02 06:13:58;;;;;;;63.97;47.45;;;6.30;99.90;;;;;;5096400;28;20428;-67
2023/01/02 06:16:24;;;;;;;50.97;37.65;;;6.20;99.90;;;;;;5096116;28;20382;-66
2023/01/02 06:18:50;;;;;;;48.45;36.15;;;6.10;99.90;;;;;;5096370;28;20066;-63
2023/01/02 06:21:18;;;;;;;42.78;32.35;;;6.10;99.90;;;;;;5096142;28;20058;-66
2023/01/02 06:23:44;;;;;;;49.30;36.00;;;6.20;99.90;;;;;;5096328;28;20020;-63
2023/01/02 06:26:12;;;;;;;38.53;28.73;;;6.30;99.90;;;;;;5096214;28;20447;-68
2023/01/02 06:28:39;;;;;;;36.22;28.23;;;6.30;99.90;;;;;;5096103;28;20024;-63
2023/01/02 06:31:07;;;;;;;44.10;32.30;;;6.40;99.90;;;;;;5096048;28;20020;-67
2023/01/02 06:33:33;;;;;;;37.42;28.40;;;6.40;99.90;;;;;;5095997;28;20024;-65
2023/01/02 06:36:04;;;;;;;32.08;24.80;;;6.50;99.90;;;;;;5095969;28;20027;-66
2023/01/02 06:38:30;;;;;;;45.03;32.25;;;6.50;99.90;;;;;;5095933;28;20017;-63
2023/01/02 06:40:58;;;;;;;69.47;45.35;;;6.50;99.90;;;;;;5096301;28;20042;-64
2023/01/02 06:43:25;;;;;;;84.80;57.45;;;6.50;99.90;;;;;;5095899;28;20444;-65
2023/01/02 06:45:51;;;;;;;76.38;51.85;;;6.50;99.90;;;;;;5095618;28;20038;-62
2023/01/02 06:48:17;;;;;;;76.80;53.33;;;6.40;99.90;;;;;;5095832;28;20028;-68
2023/01/02 06:50:43;;;;;;;61.80;43.58;;;6.40;99.90;;;;;;5095718;28;20087;-61
2023/01/02 06:53:10;;;;;;;65.20;46.28;;;6.50;99.90;;;;;;5095679;28;20020;-67
2023/01/02 06:55:35;;;;;;;76.63;51.42;;;6.60;99.90;;;;;;5095535;28;20420;-62
2023/01/02 06:58:01;;;;;;;93.72;65.13;;;6.50;99.90;;;;;;5095365;28;20056;-62
2023/01/02 07:00:27;;;;;;;64.68;47.00;;;6.60;99.90;;;;;;5095390;28;20082;-65
2023/01/02 07:02:53;;;;;;;74.75;52.53;;;6.60;99.90;;;;;;5095410;28;20051;-64
2023/01/02 07:05:18;;;;;;;76.53;52.90;;;6.70;99.90;;;;;;5095499;28;20047;-65
2023/01/02 07:07:44;;;;;;;84.65;56.33;;;6.80;99.90;;;;;;5095300;28;20047;-65
2023/01/02 07:10:10;;;;;;;86.82;62.88;;;6.90;99.90;;;;;;5095363;28;20031;-66
2023/01/02 07:12:36;;;;;;;98.70;68.22;;;6.90;99.90;;;;;;5095190;28;20081;-65
2023/01/02 07:15:04;;;;;;;118.18;82.32;;;7.00;99.90;;;;;;5094884;28;20108;-63
2023/01/02 07:17:30;;;;;;;101.07;69.20;;;7.00;99.90;;;;;;5094383;28;20019;-65
2023/01/02 07:19:56;;;;;;;113.20;80.20;;;7.00;99.90;;;;;;5095117;28;20032;-65
2023/01/02 07:22:22;;;;;;;187.82;125.50;;;7.10;99.90;;;;;;5094998;28;20024;-64
2023/01/02 07:24:47;;;;;;;114.50;86.82;;;7.10;99.90;;;;;;5095082;28;20027;-66
2023/01/02 07:27:13;;;;;;;101.88;80.05;;;7.20;99.90;;;;;;5094822;28;20023;-65
2023/01/02 07:29:39;;;;;;;104.93;80.25;;;7.20;99.90;;;;;;5095090;28;20394;-59
2023/01/02 07:32:04;;;;;;;120.82;88.20;;;7.30;99.90;;;;;;5094757;28;20120;-63
2023/01/02 07:34:30;;;;;;;141.90;102.63;;;7.40;99.90;;;;;;5094792;28;20020;-65
2023/01/02 07:36:56;;;;;;;111.90;84.60;;;7.50;99.90;;;;;;5094961;28;20028;-65
2023/01/02 07:39:23;;;;;;;116.25;83.85;;;7.50;99.90;;;;;;5094663;28;20028;-66
2023/01/02 07:41:48;;;;;;;87.95;67.53;;;7.60;99.90;;;;;;5094747;28;20016;-65
2023/01/02 07:44:14;;;;;;;121.85;84.38;;;7.70;99.90;;;;;;5094659;28;20020;-65
2023/01/02 07:46:40;;;;;;;135.32;99.70;;;7.80;99.90;;;;;;5094388;28;20474;-67
2023/01/02 07:49:05;;;;;;;135.00;97.53;;;7.80;99.90;;;;;;5094696;28;20028;-63
2023/01/02 07:51:32;;;;;;;144.52;103.60;;;7.80;99.90;;;;;;5094487;28;20020;-64
2023/01/02 07:53:58;;;;;;;211.90;145.88;;;8.00;99.90;;;;;;5094322;28;20115;-65
2023/01/02 07:56:25;;;;;;;188.93;135.77;;;8.00;99.90;;;;;;5094569;28;20051;-65
2023/01/02 07:58:51;;;;;;;177.30;126.95;;;8.00;99.90;;;;;;5094131;28;20097;-63
2023/01/02 08:01:16;;;;;;;180.85;131.35;;;8.40;99.90;;;;;;5076290;28;20555;-66
2023/01/02 08:03:42;;;;;;;172.93;123.82;;;8.70;99.90;;;;;;5094443;28;20028;-62
2023/01/02 08:06:12;;;;;;;188.02;139.20;;;8.90;99.90;;;;;;5094559;28;20047;-62
2023/01/02 08:08:38;;;;;;;208.20;154.88;;;9.10;99.90;;;;;;5094185;28;20020;-64
2023/01/02 08:11:09;;;;;;;194.13;149.57;;;9.20;99.90;;;;;;5093958;28;20020;-66
2023/01/02 08:13:34;;;;;;;196.95;154.95;;;9.30;99.90;;;;;;5094116;28;20032;-64
2023/01/02 08:16:11;;;;;;;175.60;135.65;;;9.20;99.90;;;;;;5093988;28;20091;-64
2023/01/02 08:18:37;;;;;;;162.23;127.32;;;9.30;99.90;;;;;;5094002;28;20020;-63
2023/01/02 08:21:03;;;;;;;149.35;114.05;;;9.70;99.90;;;;;;5094062;28;20053;-60
2023/01/02 08:23:29;;;;;;;154.68;120.85;;;9.90;99.90;;;;;;5093873;28;20048;-66
2023/01/02 08:25:58;;;;;;;143.57;111.25;;;9.90;99.90;;;;;;5093858;28;20058;-62
2023/01/02 08:28:25;;;;;;;145.38;111.43;;;9.90;99.90;;;;;;5093972;28;20081;-63
2023/01/02 08:30:50;;;;;;;136.07;105.43;;;10.30;99.90;;;;;;5093719;28;20062;-61
2023/01/02 08:33:16;;;;;;;125.88;98.85;;;10.50;99.90;;;;;;5093869;28;20039;-65
2023/01/02 08:35:42;;;;;;;113.30;88.78;;;10.30;99.90;;;;;;5093904;28;20028;-63
2023/01/02 08:38:07;;;;;;;106.80;85.40;;;10.40;99.90;;;;;;5093768;28;20028;-60
2023/01/02 08:40:33;;;;;;;106.70;82.35;;;10.70;99.90;;;;;;5093645;28;20073;-65
2023/01/02 08:42:59;;;;;;;113.28;90.55;;;10.80;99.90;;;;;;5075807;28;20054;-66
2023/01/02 08:45:24;;;;;;;110.50;86.65;;;10.80;99.90;;;;;;5093574;28;20478;-67
2023/01/02 08:47:50;;;;;;;94.25;74.95;;;10.60;99.90;;;;;;5093681;28;20031;-63
2023/01/02 08:50:16;;;;;;;84.18;68.28;;;10.90;99.90;;;;;;5093843;28;20077;-63
2023/01/02 08:52:42;;;;;;;102.57;76.43;;;11.00;99.90;;;;;;5093935;28;20028;-61
2023/01/02 08:55:08;;;;;;;91.97;72.65;;;10.90;99.90;;;;;;5093300;28;20048;-64
2023/01/02 08:57:33;;;;;;;79.10;62.10;;;10.70;99.90;;;;;;5093687;28;20016;-66
2023/01/02 08:59:59;;;;;;;72.20;56.05;;;11.00;99.90;;;;;;5093721;28;20036;-66
2023/01/02 09:02:25;;;;;;;64.57;53.08;;;11.50;99.90;;;;;;5093553;28;20032;-65
2023/01/02 09:04:50;;;;;;;83.63;64.97;;;12.00;99.90;;;;;;5093579;28;20020;-64
2023/01/02 09:07:16;;;;;;;86.65;68.80;;;12.20;99.90;;;;;;5093502;28;20381;-65
2023/01/02 09:09:42;;;;;;;107.60;83.20;;;11.90;99.90;;;;;;5093306;28;20027;-63
2023/01/02 09:12:08;;;;;;;79.22;64.38;;;11.90;99.90;;;;;;5093450;28;20416;-66
2023/01/02 09:14:33;;;;;;;92.03;68.65;;;11.90;99.90;;;;;;5093530;28;20030;-64
2023/01/02 09:16:59;;;;;;;101.18;78.20;;;12.00;99.90;;;;;;5093395;28;20028;-62
2023/01/02 09:19:26;;;;;;;119.97;96.85;;;12.10;99.90;;;;;;5093402;28;20024;-65
2023/01/02 09:21:52;;;;;;;115.25;88.95;;;12.30;99.90;;;;;;5093505;28;20092;-64
2023/01/02 09:24:17;;;;;;;134.65;103.88;;;12.50;99.90;;;;;;5093235;28;20024;-63
2023/01/02 09:26:43;;;;;;;106.80;86.47;;;12.90;99.90;;;;;;5075268;28;20021;-67
2023/01/02 09:29:10;;;;;;;127.40;95.18;;;13.20;99.90;;;;;;5093358;28;20045;-66
2023/01/02 09:31:37;;;;;;;103.57;85.72;;;13.60;99.90;;;;;;5093433;28;20501;-64
2023/01/02 09:34:03;;;;;;;101.20;84.18;;;13.90;99.90;;;;;;5093088;28;20111;-66
2023/01/02 09:36:28;;;;;;;94.47;75.30;;;14.20;99.90;;;;;;5093336;28;20138;-63
2023/01/02 09:38:56;;;;;;;88.53;74.32;;;14.50;99.90;;;;;;5075047;28;20103;-66
2023/01/02 09:41:40;;;;;;;85.53;73.82;;;14.80;99.90;;;;;;5078743;28;20097;-65
2023/01/02 09:44:15;;;;;;;;;;;15.20;98.60;;;;;;5097592;28;20027;-63
2023/01/02 09:47:13;;;;;;;90.63;75.45;;;15.50;97.80;;;;;;5096982;28;19904;-63
2023/01/02 09:49:59;;;;;;;82.00;70.88;;;15.80;96.20;;;;;;5078779;28;20378;-68
2023/01/02 09:52:24;;;;;;;82.15;69.38;;;15.60;93.80;;;;;;5096774;28;20039;-61
2023/01/02 09:54:50;;;;;;;80.45;68.32;;;15.70;95.10;;;;;;5096478;28;20382;-62
2023/01/02 09:57:28;;;;;;;68.88;61.42;;;15.80;99.30;;;;;;5096660;28;20099;-69
2023/01/02 10:00:34;;;;;;;65.50;58.42;;;15.80;95.00;;;;;;5096836;28;20039;-62
2023/01/02 10:03:13;;;;;;;60.00;53.70;;;15.80;94.80;;;;;;5014750;28;20056;-63
2023/01/02 10:06:09;;;;;;;63.03;56.20;;;15.90;94.50;;;;;;5088270;28;20078;-61
2023/01/02 10:08:41;;;;;;;63.72;56.95;;;15.90;90.80;;;;;;5078327;28;20103;-63
2023/01/02 10:11:30;;;;;;;62.13;55.45;;;16.00;87.00;;;;;;5096414;28;20016;-70
2023/01/02 10:14:00;;;;;;;62.10;55.45;;;16.10;90.20;;;;;;5096379;28;20409;-66
2023/01/02 10:16:38;;;;;;;75.28;64.25;;;16.20;91.50;;;;;;5096473;28;20068;-67
2023/01/02 10:19:15;;;;;;;72.70;63.47;;;16.30;78.40;;;;;;5078460;28;20027;-62
2023/01/02 10:21:43;;;;;;;64.95;58.00;;;16.20;80.00;;;;;;5096304;28;20048;-67
2023/01/02 10:24:38;;;;;;;71.10;62.80;;;16.20;86.90;;;;;;5096281;28;20531;-67
2023/01/02 10:27:10;;;;;;;76.38;68.05;;;16.40;86.80;;;;;;5024039;28;20053;-67
2023/01/02 10:29:44;;;;;;;78.68;70.03;;;16.60;81.90;;;;;;5096240;28;20016;-64
2023/01/02 10:32:19;;;;;;;85.75;76.15;;;16.70;81.90;;;;;;5096091;28;20059;-61
2023/01/02 10:35:07;;;;;;;78.72;69.15;;;16.90;79.20;;;;;;5096203;28;20056;-64
2023/01/02 10:37:33;;;;;;;74.85;66.65;;;17.10;74.50;;;;;;5095962;28;20066;-65
2023/01/02 10:39:59;;;;;;;66.32;59.13;;;17.30;73.90;;;;;;5095875;28;20035;-66
2023/01/02 10:42:25;;;;;;;64.75;57.75;;;17.40;68.60;;;;;;5095848;28;20013;-64
2023/01/02 10:44:51;;;;;;;60.30;53.90;;;17.60;67.50;;;;;;5095937;28;20024;-62
2023/01/02 10:47:30;;;;;;;58.92;52.72;;;17.80;62.80;;;;;;5095816;28;20020;-64
2023/01/02 10:49:57;;;;;;;56.63;50.53;;;18.00;61.70;;;;;;5095782;28;20447;-67
2023/01/02 10:52:22;;;;;;;56.50;50.40;;;18.20;60.70;;;;;;5094142;28;20042;-67
2023/01/02 10:54:56;;;;;;;53.80;47.90;;;18.40;59.00;;;;;;5095770;28;20024;-65
2023/01/02 10:57:42;;;;;;;51.97;46.30;;;18.50;68.80;;;;;;5095648;28;20024;-67
2023/01/02 11:00:34;;;;;;;46.70;41.70;;;18.50;62.00;;;;;;5095646;28;20397;-68
2023/01/02 11:03:12;;;;;;;45.25;40.55;;;18.60;62.10;;;;;;5092310;28;20398;-67
2023/01/02 11:05:44;;;;;;;48.10;43.13;;;18.80;60.30;;;;;;5095207;28;20021;-68
2023/01/02 11:08:16;;;;;;;47.23;42.30;;;19.00;57.90;;;;;;5095481;28;20085;-66
2023/01/02 11:10:42;;;;;;;45.38;40.80;;;19.30;56.30;;;;;;5095357;28;20141;-65
2023/01/02 11:13:17;;;;;;;45.67;40.90;;;19.30;57.60;;;;;;5077181;28;20161;-63
2023/01/02 11:15:49;;;;;;;40.15;35.92;;;19.50;55.60;;;;;;5095274;28;20030;-64
2023/01/02 11:18:34;;;;;;;37.77;33.77;;;19.60;56.90;;;;;;5095176;28;20027;-65
2023/01/02 11:21:03;;;;;;;36.08;32.42;;;19.70;54.30;;;;;;5095211;28;20090;-69
2023/01/02 11:23:42;;;;;;;38.28;34.38;;;19.80;54.90;;;;;;5093906;28;20026;-62
2023/01/02 11:26:21;;;;;;;35.55;31.95;;;20.00;54.00;;;;;;5095115;28;20021;-66
2023/01/02 11:28:50;;;;;;;33.58;30.23;;;20.20;53.00;;;;;;5095090;28;20016;-66
2023/01/02 11:31:17;;;;;;;33.03;29.70;;;20.40;52.20;;;;;;5095131;28;20020;-62
2023/01/02 11:33:44;;;;;;;41.22;37.00;;;20.50;52.10;;;;;;5094784;28;20036;-63
2023/01/02 11:36:10;;;;;;;34.90;31.42;;;20.80;52.00;;;;;;5094626;28;20047;-68
2023/01/02 11:38:46;;;;;;;39.67;35.45;;;20.80;51.80;;;;;;5094819;28;20439;-66
2023/01/02 11:41:20;;;;;;;37.45;33.45;;;21.00;53.90;;;;;;5094706;28;20022;-64
2023/01/02 11:43:53;;;;;;;42.78;37.33;;;21.10;51.30;;;;;;5094679;28;20024;-67
2023/01/02 11:46:31;;;;;;;37.10;32.92;;;21.20;49.60;;;;;;5093543;28;20042;-64
2023/01/02 11:49:04;;;;;;;31.52;28.20;;;21.40;50.00;;;;;;5094742;28;20107;-66
2023/01/02 11:51:34;;;;;;;28.67;25.73;;;21.50;49.30;;;;;;5094430;28;20099;-66
2023/01/02 11:54:03;;;;;;;25.90;23.30;;;21.50;49.50;;;;;;5094193;28;20055;-66
2023/01/02 11:56:38;;;;;;;23.52;21.20;;;21.50;49.50;;;;;;5093294;28;20020;-67
2023/01/02 11:59:24;;;;;;;21.67;19.50;;;21.70;48.70;;;;;;5094150;28;20110;-67
2023/01/02 12:02:19;;;;;;;23.25;20.83;;;22.00;48.70;;;;;;5079661;28;20051;-64
2023/01/02 12:04:45;;;;;;;20.67;18.67;;;22.10;47.20;;;;;;5094274;28;20047;-63
2023/01/02 12:07:41;;;;;;;19.02;17.25;;;22.30;47.70;;;;;;5094465;28;20024;-64
2023/01/02 12:10:49;;;;;;;18.27;16.35;;;22.50;46.60;;;;;;5094234;28;20025;-66
2023/01/02 12:13:38;;;;;;;23.25;20.85;;;22.60;48.00;;;;;;5029511;28;20036;-65
2023/01/02 12:16:17;;;;;;;39.28;35.05;;;22.80;47.80;;;;;;5094050;28;20023;-61
2023/01/02 12:19:03;;;;;;;53.58;46.22;;;22.50;47.30;;;;;;5093840;28;20020;-63
2023/01/02 12:21:58;;;;;;;65.47;54.13;;;22.20;47.80;;;;;;5093845;28;20020;-63
2023/01/02 12:24:33;;;;;;;58.30;49.58;;;21.70;48.90;;;;;;5093332;28;20039;-64
2023/01/02 12:27:17;;;;;;;55.17;48.42;;;21.10;49.50;;;;;;5094336;28;20016;-69
2023/01/02 12:29:56;;;;;;;47.10;41.97;;;20.70;50.80;;;;;;5093870;28;20478;-66
2023/01/02 12:32:40;;;;;;;44.53;39.58;;;20.50;52.20;;;;;;5093857;28;20032;-63
2023/01/02 12:35:09;;;;;;;64.25;54.42;;;20.30;54.20;;;;;;5093890;28;20053;-67
2023/01/02 12:37:44;;;;;;;112.88;92.25;;;19.90;56.20;;;;;;5093823;28;20020;-68
2023/01/02 12:40:10;;;;;;;126.70;104.60;;;19.70;60.00;;;;;;5093624;28;20058;-64
2023/01/02 12:42:57;;;;;;;111.30;96.53;;;19.50;65.10;;;;;;5093902;28;20047;-64
2023/01/02 12:45:28;;;;;;;95.20;80.90;;;19.30;65.80;;;;;;5094587;28;20107;-69
2023/01/02 12:48:09;;;;;;;85.72;71.88;;;19.10;75.50;;;;;;5107013;28;20027;-64
2023/01/02 12:50:55;;;;;;;103.65;92.45;;;19.10;71.70;;;;;;5114173;28;20047;-67
2023/01/02 12:53:37;;;;;;;99.32;88.53;;;19.20;65.40;;;;;;5113951;28;20070;-63